Time;durP1;ratioP1;P1;durP2;ratioP2;P2;SDS_P1;SDS_P2;PMS_P1;PMS_P2;Temp;Humidity;BMP_temperature;BMP_pressure;BME280_temperature;BME280_humidity;BME280_pressure;Samples;Min_cycle;Max_cycle;Signal;HPM_P1;HPM_P2
2021/07/07 00:01:30;;;;;;;;;;;9.10;99.90;;;;;;5110147;28;20327;-65
2021/07/07 00:03:56;;;;;;;;;;;9.20;99.90;;;;;;5109949;28;20346;-65
2021/07/07 00:06:23;;;;;;;;;;;9.20;99.90;;;;;;5109221;28;19908;-65
2021/07/07 00:08:49;;;;;;;;;;;9.30;99.90;;;;;;5110143;28;19919;-67
2021/07/07 00:11:17;;;;;;;;;;;9.30;99.90;;;;;;5110237;28;19934;-66
2021/07/07 00:13:44;;;;;;;;;;;9.40;99.90;;;;;;5109708;28;19940;-65
2021/07/07 00:16:11;;;;;;;;;;;9.40;99.90;;;;;;5109829;28;20207;-65
2021/07/07 00:18:38;;;;;;;;;;;9.50;99.90;;;;;;5109755;28;19908;-67
2021/07/07 00:21:05;;;;;;;;;;;9.50;99.90;;;;;;5108477;28;19991;-67
2021/07/07 00:23:31;;;;;;;;;;;9.50;99.90;;;;;;5109650;28;19924;-67
2021/07/07 00:25:58;;;;;;;;;;;9.60;99.90;;;;;;5109805;28;19950;-66
2021/07/07 00:28:25;;;;;;;;;;;9.60;99.90;;;;;;5109596;28;19908;-66
2021/07/07 00:30:53;;;;;;;;;;;9.70;99.90;;;;;;5107355;28;19933;-67
2021/07/07 00:33:20;;;;;;;;;;;9.80;99.90;;;;;;5109805;28;20282;-66
2021/07/07 00:35:47;;;;;;;;;;;9.80;99.90;;;;;;5109224;28;19912;-66
2021/07/07 00:38:14;;;;;;;;;;;9.90;99.90;;;;;;5109298;28;19908;-68
2021/07/07 00:41:08;;;;;;;;;;;10.00;99.90;;;;;;5109238;28;19970;-66
2021/07/07 00:43:35;;;;;;;;;;;10.10;99.90;;;;;;5123353;28;19972;-66
2021/07/07 00:46:03;;;;;;;;;;;10.20;99.90;;;;;;5109767;28;19915;-67
2021/07/07 00:48:29;;;;;;;;;;;10.30;99.90;;;;;;5129265;28;20311;-67
2021/07/07 00:50:59;;;;;;;;;;;10.30;99.90;;;;;;5129552;28;19914;-66
2021/07/07 00:53:26;;;;;;;;;;;10.40;99.90;;;;;;5129042;28;20006;-66
2021/07/07 00:55:53;;;;;;;;;;;10.50;99.90;;;;;;5114874;28;19951;-65
2021/07/07 00:58:21;;;;;;;;;;;10.60;99.90;;;;;;5115404;28;19919;-65
2021/07/07 01:00:48;;;;;;;;;;;10.70;99.90;;;;;;5113378;28;20379;-66
2021/07/07 01:03:14;;;;;;;;;;;10.70;99.90;;;;;;5115655;28;20290;-66
2021/07/07 01:05:41;;;;;;;;;;;10.70;99.90;;;;;;5115254;28;20388;-67
2021/07/07 01:08:08;;;;;;;;;;;10.90;99.90;;;;;;5115214;28;19912;-65
2021/07/07 01:10:34;;;;;;;;;;;11.00;99.90;;;;;;5115397;28;19908;-66
2021/07/07 01:13:01;;;;;;;;;;;11.20;99.90;;;;;;5115214;28;19911;-66
2021/07/07 01:15:27;;;;;;;;;;;11.60;99.90;;;;;;5113774;28;19920;-67
2021/07/07 01:17:54;;;;;;;;;;;11.70;99.90;;;;;;5115108;28;20358;-67
2021/07/07 01:20:25;;;;;;;;;;;11.80;99.90;;;;;;5115423;28;19935;-67
2021/07/07 01:22:56;;;;;;;;;;;12.00;99.90;;;;;;5115330;28;19927;-67
2021/07/07 01:25:23;;;;;;;;;;;12.10;99.90;;;;;;5115459;28;19943;-66
2021/07/07 01:27:49;;;;;;;;;;;12.30;99.90;;;;;;5114632;28;19937;-67
2021/07/07 01:30:18;;;;;;;;;;;12.30;99.90;;;;;;5110160;28;19912;-67
2021/07/07 01:32:45;;;;;;;;;;;12.20;99.90;;;;;;5114728;28;20386;-67
2021/07/07 01:35:12;;;;;;;;;;;12.20;99.90;;;;;;5114599;28;20011;-67
2021/07/07 01:37:39;;;;;;;;;;;12.20;99.90;;;;;;5114602;28;19908;-66
2021/07/07 01:40:07;;;;;;;;;;;12.20;99.90;;;;;;5114912;28;19914;-66
2021/07/07 01:42:34;;;;;;;;;;;12.30;99.90;;;;;;5114495;28;19946;-66
2021/07/07 01:45:01;;;;;;;;;;;12.20;99.90;;;;;;5111262;28;19911;-67
2021/07/07 01:47:27;;;;;;;;;;;12.20;99.90;;;;;;5114450;28;20529;-67
2021/07/07 01:49:54;;;;;;;;;;;12.20;99.90;;;;;;5114430;28;20030;-66
2021/07/07 01:52:21;;;;;;;;;;;12.10;99.90;;;;;;5114197;28;19911;-66
2021/07/07 01:54:47;;;;;;;;;;;12.00;99.90;;;;;;5114379;28;19942;-66
2021/07/07 01:57:14;;;;;;;;;;;12.10;99.90;;;;;;5114492;28;19908;-66
2021/07/07 01:59:40;;;;;;;;;;;12.20;99.90;;;;;;5112046;28;19912;-66
2021/07/07 02:02:07;;;;;;;;;;;12.20;99.90;;;;;;5114104;28;20006;-66
2021/07/07 02:04:34;;;;;;;;;;;12.20;99.90;;;;;;5114251;28;20013;-67
2021/07/07 02:07:01;;;;;;;;;;;12.30;99.90;;;;;;5113101;28;20337;-66
2021/07/07 02:09:27;;;;;;;;;;;12.40;99.90;;;;;;5114045;28;20384;-66
2021/07/07 02:11:54;;;;;;;;;;;12.40;99.90;;;;;;5113211;28;20366;-66
2021/07/07 02:14:21;;;;;;;;;;;12.50;99.90;;;;;;5093723;28;20329;-65
2021/07/07 02:16:48;;;;;;;;;;;12.60;99.90;;;;;;5113949;28;19908;-66
2021/07/07 02:19:14;;;;;;;;;;;12.80;99.90;;;;;;5114163;28;19953;-67
2021/07/07 02:21:41;;;;;;;;;;;12.90;99.90;;;;;;5114067;28;20181;-66
2021/07/07 02:24:08;;;;;;;;;;;12.80;99.90;;;;;;5113921;28;19915;-66
2021/07/07 02:26:35;;;;;;;;;;;12.80;99.90;;;;;;5095651;28;19922;-66
2021/07/07 02:29:02;;;;;;;;;;;12.80;99.90;;;;;;5112377;28;19930;-66
2021/07/07 02:31:28;;;;;;;;;;;12.90;99.90;;;;;;5113393;28;20312;-66
2021/07/07 02:33:55;;;;;;;;;;;12.80;99.90;;;;;;5113892;28;19915;-66
2021/07/07 02:36:22;;;;;;;;;;;12.80;99.90;;;;;;5113466;28;19914;-67
2021/07/07 02:38:48;;;;;;;;;;;12.90;99.90;;;;;;5113736;28;19908;-65
2021/07/07 02:41:15;;;;;;;;;;;13.00;99.90;;;;;;5113616;28;19915;-65
2021/07/07 02:43:41;;;;;;;;;;;13.10;99.90;;;;;;5110952;28;19935;-67
2021/07/07 02:46:08;;;;;;;;;;;13.10;99.90;;;;;;5113453;28;19923;-66
2021/07/07 02:48:35;;;;;;;;;;;13.10;99.90;;;;;;5113521;28;19999;-68
2021/07/07 02:51:02;;;;;;;;;;;13.10;99.90;;;;;;5113281;28;19951;-66
2021/07/07 02:53:28;;;;;;;;;;;13.20;99.90;;;;;;5113308;28;19908;-67
2021/07/07 02:55:55;;;;;;;;;;;13.30;99.90;;;;;;5113098;28;19908;-67
2021/07/07 02:58:22;;;;;;;;;;;13.30;99.90;;;;;;5111521;28;19920;-67
2021/07/07 03:00:50;;;;;;;;;;;13.40;99.90;;;;;;5106964;28;19911;-66
2021/07/07 03:03:20;;;;;;;;;;;13.40;99.90;;;;;;5112996;28;19911;-66
2021/07/07 03:05:50;;;;;;;;;;;13.40;99.90;;;;;;5113183;28;19907;-67
2021/07/07 03:08:17;;;;;;;;;;;13.50;99.90;;;;;;5112838;28;19908;-67
2021/07/07 03:10:44;;;;;;;;;;;13.60;99.90;;;;;;5113033;28;20302;-66
2021/07/07 03:13:12;;;;;;;;;;;13.50;99.90;;;;;;5111552;28;19911;-64
2021/07/07 03:15:38;;;;;;;;;;;13.50;99.90;;;;;;5112614;28;20350;-67
2021/07/07 03:18:08;;;;;;;;;;;13.50;99.90;;;;;;5094355;28;19915;-67
2021/07/07 03:20:36;;;;;;;;;;;13.50;99.90;;;;;;5112734;28;20346;-66
2021/07/07 03:23:03;;;;;;;;;;;13.60;99.90;;;;;;5112715;28;19916;-67
2021/07/07 03:25:30;;;;;;;;;;;13.50;99.90;;;;;;5094494;28;19957;-67
2021/07/07 03:27:57;;;;;;;;;;;13.40;99.90;;;;;;5110698;28;20377;-67
2021/07/07 03:30:26;;;;;;;;;;;13.40;99.90;;;;;;5112356;28;19913;-66
2021/07/07 03:32:54;;;;;;;;;;;13.30;99.90;;;;;;5112949;28;19915;-67
2021/07/07 03:35:21;;;;;;;;;;;13.30;99.90;;;;;;5112415;28;19991;-67
2021/07/07 03:37:47;;;;;;;;;;;13.30;99.90;;;;;;5112693;28;19915;-67
2021/07/07 03:40:14;;;;;;;;;;;13.30;99.90;;;;;;5112643;28;19951;-67
2021/07/07 03:42:41;;;;;;;;;;;13.20;99.90;;;;;;5111143;28;19920;-64
2021/07/07 03:45:09;;;;;;;;;;;13.20;99.90;;;;;;5112528;28;19908;-66
2021/07/07 03:47:36;;;;;;;;;;;13.20;99.90;;;;;;5112307;28;19915;-66
2021/07/07 03:50:03;;;;;;;;;;;13.20;99.90;;;;;;5112603;28;19908;-66
2021/07/07 03:52:30;;;;;;;;;;;13.40;99.90;;;;;;5112638;28;19908;-67
2021/07/07 03:54:57;;;;;;;;;;;13.50;99.90;;;;;;5112828;28;19999;-66
2021/07/07 03:57:23;;;;;;;;;;;13.50;99.90;;;;;;5110690;28;19912;-66
2021/07/07 03:59:50;;;;;;;;;;;13.50;99.90;;;;;;5112429;28;20239;-67
2021/07/07 04:02:17;;;;;;;;;;;13.60;99.90;;;;;;5112334;28;19961;-67
2021/07/07 04:04:43;;;;;;;;;;;13.60;99.90;;;;;;5112313;28;19907;-67
2021/07/07 04:07:10;;;;;;;;;;;13.50;99.90;;;;;;5112423;28;19907;-67
2021/07/07 04:09:37;;;;;;;;;;;13.80;99.90;;;;;;5112097;28;19918;-66
2021/07/07 04:12:04;;;;;;;;;;;13.70;99.90;;;;;;5110979;28;19954;-66
2021/07/07 04:14:30;;;;;;;;;;;13.50;99.90;;;;;;5112363;28;19916;-66
2021/07/07 04:16:58;;;;;;;;;;;13.60;99.90;;;;;;5112240;28;20426;-66
2021/07/07 04:19:25;;;;;;;;;;;13.60;99.90;;;;;;5112420;28;20713;-66
2021/07/07 04:21:53;;;;;;;;;;;13.60;99.90;;;;;;5110990;28;20363;-66
2021/07/07 04:24:20;;;;;;;;;;;13.80;99.90;;;;;;5112069;28;19916;-66
2021/07/07 04:26:47;;;;;;;;;;;13.80;99.90;;;;;;5108988;28;19912;-66
2021/07/07 04:29:14;;;;;;;;;;;14.00;99.60;;;;;;5112887;28;20281;-66
2021/07/07 04:31:41;;;;;;;;;;;14.00;99.40;;;;;;5115718;28;19994;-66
2021/07/07 04:34:08;;;;;;;;;;;14.00;99.90;;;;;;5114496;28;19908;-66
2021/07/07 04:36:34;;;;;;;;;;;14.10;99.90;;;;;;5097886;28;19911;-67
2021/07/07 04:39:02;;;;;;;;;;;14.20;99.90;;;;;;5115928;28;19911;-67
2021/07/07 04:41:29;;;;;;;;;;;14.20;99.90;;;;;;5115719;28;19990;-66
2021/07/07 04:43:56;;;;;;;;;;;14.20;99.90;;;;;;5115562;28;19927;-65
2021/07/07 04:46:22;;;;;;;;;;;14.20;99.90;;;;;;5115562;28;19995;-65
2021/07/07 04:48:49;;;;;;;;;;;14.10;99.90;;;;;;5114529;28;19950;-66
2021/07/07 04:51:16;;;;;;;;;;;14.10;99.90;;;;;;5114263;28;20401;-66
2021/07/07 04:53:43;;;;;;;;;;;14.10;99.90;;;;;;5115511;28;19914;-66
2021/07/07 04:56:11;;;;;;;;;;;14.10;99.90;;;;;;5115714;28;19908;-66
2021/07/07 04:58:39;;;;;;;;;;;14.20;99.90;;;;;;5115619;28;19908;-66
2021/07/07 05:01:06;;;;;;;;;;;14.10;99.90;;;;;;5097188;28;19915;-65
2021/07/07 05:03:33;;;;;;;;;;;14.10;99.90;;;;;;5114076;28;19915;-66
2021/07/07 05:06:00;;;;;;;;;;;14.10;99.90;;;;;;5074635;28;20325;-67
2021/07/07 05:08:26;;;;;;;;;;;14.10;99.90;;;;;;5056811;28;19909;-66
2021/07/07 05:10:53;;;;;;;;;;;14.00;99.90;;;;;;5074790;28;20383;-67
2021/07/07 05:13:20;;;;;;;;;;;14.00;99.90;;;;;;5078610;28;19935;-67
2021/07/07 05:15:47;;;;;;;;;;;13.90;99.90;;;;;;5115081;28;19990;-67
2021/07/07 05:18:15;;;;;;;;;;;13.90;99.90;;;;;;5115416;28;19912;-67
2021/07/07 05:20:41;;;;;;;;;;;13.80;99.90;;;;;;5115377;28;19918;-66
2021/07/07 05:23:11;;;;;;;;;;;13.70;99.90;;;;;;5114980;28;19920;-66
2021/07/07 05:25:39;;;;;;;;;;;13.70;99.90;;;;;;5114895;28;19908;-65
2021/07/07 05:28:06;;;;;;;;;;;13.70;99.90;;;;;;5113629;28;19914;-65
2021/07/07 05:30:33;;;;;;;;;;;13.70;99.90;;;;;;5114737;28;19908;-65
2021/07/07 05:33:00;;;;;;;;;;;13.70;99.90;;;;;;5114816;28;19915;-64
2021/07/07 05:35:27;;;;;;;;;;;13.70;99.90;;;;;;5115029;28;19907;-66
2021/07/07 05:37:54;;;;;;;;;;;13.70;99.90;;;;;;5114703;28;19907;-64
2021/07/07 05:40:21;;;;;;;;;;;13.70;99.90;;;;;;5114540;28;20324;-65
2021/07/07 05:42:55;;;;;;;;;;;13.70;99.90;;;;;;5112552;28;19919;-66
2021/07/07 05:45:23;;;;;;;;;;;13.70;99.90;;;;;;5114308;28;20371;-66
2021/07/07 05:47:50;;;;;;;;;;;13.70;99.90;;;;;;5114658;28;19995;-65
2021/07/07 05:50:17;;;;;;;;;;;13.70;99.90;;;;;;5114651;28;19908;-66
2021/07/07 05:52:44;;;;;;;;;;;13.60;99.90;;;;;;5114609;28;20001;-65
2021/07/07 05:55:11;;;;;;;;;;;13.50;99.90;;;;;;5114325;28;19969;-66
2021/07/07 05:57:38;;;;;;;;;;;13.50;99.90;;;;;;5112702;28;19954;-67
2021/07/07 06:00:06;;;;;;;;;;;13.50;99.90;;;;;;5114501;28;19918;-65
2021/07/07 06:02:33;;;;;;;;;;;13.30;99.90;;;;;;5114193;28;19946;-66
2021/07/07 06:04:59;;;;;;;;;;;13.30;99.90;;;;;;5114324;28;19957;-66
2021/07/07 06:07:26;;;;;;;;;;;13.10;99.90;;;;;;5114341;28;20280;-65
2021/07/07 06:09:53;;;;;;;;;;;13.00;99.90;;;;;;5093766;28;19999;-65
2021/07/07 06:12:19;;;;;;;;;;;12.90;99.90;;;;;;5080067;28;19954;-66
2021/07/07 06:14:46;;;;;;;;;;;12.80;99.90;;;;;;5112643;28;19973;-65
2021/07/07 06:17:13;;;;;;;;;;;12.70;99.90;;;;;;5114267;28;19941;-65
2021/07/07 06:19:39;;;;;;;;;;;12.70;99.90;;;;;;5113805;28;19976;-65
2021/07/07 06:22:06;;;;;;;;;;;12.70;99.90;;;;;;5113308;28;20276;-65
2021/07/07 06:24:33;;;;;;;;;;;12.70;99.90;;;;;;5113933;28;19996;-65
2021/07/07 06:26:59;;;;;;;;;;;12.70;99.90;;;;;;5111503;28;19922;-67
2021/07/07 06:29:26;;;;;;;;;;;12.60;99.90;;;;;;5113355;28;20021;-67
2021/07/07 06:31:52;;;;;;;;;;;12.60;99.90;;;;;;5113446;28;19915;-66
2021/07/07 06:34:19;;;;;;;;;;;12.50;99.90;;;;;;5113604;28;19918;-66
2021/07/07 06:36:46;;;;;;;;;;;12.50;99.90;;;;;;5113809;28;20000;-66
2021/07/07 06:39:12;;;;;;;;;;;12.50;99.90;;;;;;5113659;28;20246;-66
2021/07/07 06:41:39;;;;;;;;;;;12.40;99.90;;;;;;5111251;28;19920;-66
2021/07/07 06:44:06;;;;;;;;;;;12.50;99.90;;;;;;5113221;28;19920;-66
2021/07/07 06:46:32;;;;;;;;;;;12.50;99.90;;;;;;5113324;28;19914;-67
2021/07/07 06:48:59;;;;;;;;;;;12.40;99.90;;;;;;5113811;28;19908;-67
2021/07/07 06:51:25;;;;;;;;;;;12.30;99.90;;;;;;5113384;28;20294;-67
2021/07/07 06:53:52;;;;;;;;;;;12.20;99.90;;;;;;5094495;28;19973;-66
2021/07/07 06:56:19;;;;;;;;;;;12.20;99.90;;;;;;5093721;28;19911;-67
2021/07/07 06:58:45;;;;;;;;;;;12.20;99.90;;;;;;5113391;28;19907;-67
2021/07/07 07:01:12;;;;;;;;;;;12.20;99.90;;;;;;5100950;28;19920;-67
2021/07/07 07:03:39;;;;;;;;;;;12.20;99.90;;;;;;5072257;28;19920;-66
2021/07/07 07:06:06;;;;;;;;;;;12.20;99.90;;;;;;5072471;28;19915;-67
2021/07/07 07:08:32;;;;;;;;;;;12.10;99.90;;;;;;5071965;28;19920;-67
2021/07/07 07:10:59;;;;;;;;;;;12.00;99.90;;;;;;5073393;28;20298;-66
2021/07/07 07:13:26;;;;;;;;;;;12.00;99.90;;;;;;5112813;28;20041;-66
2021/07/07 07:15:52;;;;;;;;;;;11.90;99.90;;;;;;5112645;28;19908;-67
2021/07/07 07:18:19;;;;;;;;;;;11.90;99.90;;;;;;5113008;28;19914;-66
2021/07/07 07:20:46;;;;;;;;;;;11.80;99.90;;;;;;5112919;28;19908;-65
2021/07/07 07:23:14;;;;;;;;;;;11.70;99.90;;;;;;5112908;28;20275;-65
2021/07/07 07:25:41;;;;;;;;;;;11.70;99.90;;;;;;5111139;28;19998;-66
2021/07/07 07:28:07;;;;;;;;;;;11.70;99.90;;;;;;5094504;28;19920;-65
2021/07/07 07:30:34;;;;;;;;;;;11.70;99.90;;;;;;5112816;28;19954;-67
2021/07/07 07:33:01;;;;;;;;;;;11.60;99.90;;;;;;5112644;28;20349;-66
2021/07/07 07:35:27;;;;;;;;;;;11.60;99.90;;;;;;5112791;28;20277;-66
2021/07/07 07:38:05;;;;;;;;;;;11.60;99.90;;;;;;5112418;28;19934;-66
2021/07/07 07:40:35;;;;;;;;;;;11.60;99.90;;;;;;5106758;28;19919;-66
2021/07/07 07:43:06;;;;;;;;;;;11.60;99.90;;;;;;5074557;28;19925;-65
2021/07/07 07:45:33;;;;;;;;;;;11.50;99.90;;;;;;5069635;28;20489;-66
2021/07/07 07:47:59;;;;;;;;;;;11.50;99.90;;;;;;5069987;28;20371;-66
2021/07/07 07:50:26;;;;;;;;;;;11.50;99.90;;;;;;5070053;28;19908;-67
2021/07/07 07:52:53;;;;;;;;;;;11.50;99.90;;;;;;5068446;28;19986;-66
2021/07/07 07:55:20;;;;;;;;;;;11.40;99.90;;;;;;5071462;28;19908;-66
2021/07/07 07:57:48;;;;;;;;;;;11.40;99.90;;;;;;5089953;28;19908;-65
2021/07/07 08:00:17;;;;;;;;;;;11.40;99.90;;;;;;5089968;28;20006;-66
2021/07/07 08:02:43;;;;;;;;;;;11.40;99.90;;;;;;5089938;28;19942;-65
2021/07/07 08:05:10;;;;;;;;;;;11.40;99.90;;;;;;5092752;28;20407;-68
2021/07/07 08:07:38;;;;;;;;;;;11.40;99.90;;;;;;5093718;28;19965;-67
2021/07/07 08:10:05;;;;;;;;;;;11.30;99.90;;;;;;5093108;28;20378;-66
2021/07/07 08:12:32;;;;;;;;;;;11.30;99.90;;;;;;5093951;28;19912;-67
2021/07/07 08:14:59;;;;;;;;;;;11.30;99.90;;;;;;5093999;28;19976;-66
2021/07/07 08:17:25;;;;;;;;;;;11.30;99.90;;;;;;5093651;28;19912;-67
2021/07/07 08:19:52;;;;;;;;;;;11.30;99.90;;;;;;5093176;28;19922;-66
2021/07/07 08:22:19;;;;;;;;;;;11.30;99.90;;;;;;5093762;28;19912;-67
2021/07/07 08:24:46;;;;;;;;;;;11.30;99.90;;;;;;5093939;28;20374;-66
2021/07/07 08:27:12;;;;;;;;;;;11.30;99.90;;;;;;5094058;28;19977;-66
2021/07/07 08:29:39;;;;;;;;;;;11.20;99.90;;;;;;5090494;28;19963;-66
2021/07/07 08:32:06;;;;;;;;;;;11.20;99.90;;;;;;5093538;28;20314;-66
2021/07/07 08:34:34;;;;;;;;;;;11.20;99.90;;;;;;5093634;28;19908;-66
2021/07/07 08:37:01;;;;;;;;;;;11.20;99.90;;;;;;5093577;28;19909;-65
2021/07/07 08:39:28;;;;;;;;;;;11.10;99.90;;;;;;5093837;28;19908;-65
2021/07/07 08:41:55;;;;;;;;;;;11.10;99.90;;;;;;5093537;28;20002;-66
2021/07/07 08:44:22;;;;;;;;;;;11.00;99.90;;;;;;5112267;28;19927;-66
2021/07/07 08:46:49;;;;;;;;;;;11.10;99.90;;;;;;5113647;28;19912;-65
2021/07/07 08:49:16;;;;;;;;;;;11.00;99.90;;;;;;5113572;28;20411;-65
2021/07/07 08:51:42;;;;;;;;;;;11.10;99.90;;;;;;5112695;28;19912;-66
2021/07/07 08:54:10;;;;;;;;;;;11.00;99.90;;;;;;5113538;28;19911;-66
2021/07/07 08:56:43;;;;;;;;;;;11.00;99.90;;;;;;5113344;28;19943;-67
2021/07/07 08:59:10;;;;;;;;;;;11.00;99.90;;;;;;5111161;28;19912;-66
2021/07/07 09:01:55;;;;;;;;;;;11.00;99.90;;;;;;5113488;28;20010;-66
2021/07/07 09:04:48;;;;;;;;;;;11.00;99.90;;;;;;5113117;28;20027;-67
2021/07/07 09:07:16;;;;;;;;;;;10.90;99.90;;;;;;5112359;28;19907;-66
2021/07/07 09:09:43;;;;;;;;;;;10.90;99.90;;;;;;5115235;28;19908;-66
2021/07/07 09:12:14;;;;;;;;;;;10.90;99.90;;;;;;5114446;28;19919;-66
2021/07/07 09:14:43;;;;;;;;;;;10.90;99.90;;;;;;5075593;28;20057;-66
2021/07/07 09:17:10;;;;;;;;;;;10.90;99.90;;;;;;5075533;28;19912;-67
2021/07/07 09:19:38;;;;;;;;;;;10.90;99.90;;;;;;5074858;28;19919;-66
2021/07/07 09:22:07;;;;;;;;;;;10.80;99.90;;;;;;5075310;28;19909;-67
2021/07/07 09:24:35;;;;;;;;;;;10.90;99.90;;;;;;5041185;28;19923;-66
2021/07/07 09:27:12;;;;;;;;;;;10.90;99.90;;;;;;5090680;28;20010;-66
2021/07/07 09:29:40;;;;;;;;;;;10.90;99.90;;;;;;5114468;28;19931;-66
2021/07/07 09:32:14;;;;;;;;;;;10.90;99.90;;;;;;5113830;28;19927;-67
2021/07/07 09:34:41;;;;;;;;;;;10.90;99.90;;;;;;5114980;28;19977;-66
2021/07/07 09:37:09;;;;;;;;;;;10.80;99.90;;;;;;5098204;28;19907;-65
2021/07/07 09:39:36;;;;;;;;;;;10.80;99.90;;;;;;5115074;28;20354;-66
2021/07/07 09:42:03;;;;;;;;;;;10.80;99.90;;;;;;5113640;28;19966;-66
2021/07/07 09:44:34;;;;;;;;;;;10.80;99.90;;;;;;5096366;28;19959;-66
2021/07/07 09:47:04;;;;;;;;;;;10.80;99.90;;;;;;5114841;28;19915;-66
2021/07/07 09:49:34;;;;;;;;;;;10.80;99.90;;;;;;5114615;28;19908;-66
2021/07/07 09:52:01;;;;;;;;;;;10.80;99.90;;;;;;5114955;28;20037;-67
2021/07/07 09:54:28;;;;;;;;;;;10.80;99.90;;;;;;5114657;28;19908;-66
2021/07/07 09:56:55;;;;;;;;;;;10.80;99.90;;;;;;5112597;28;19918;-65
2021/07/07 09:59:21;;;;;;;;;;;10.80;99.90;;;;;;5095601;28;19912;-66
2021/07/07 10:01:48;;;;;;;;;;;10.70;99.90;;;;;;5096141;28;20278;-66
2021/07/07 10:04:16;;;;;;;;;;;10.80;99.90;;;;;;5114210;28;19916;-68
2021/07/07 10:06:44;;;;;;;;;;;10.80;99.90;;;;;;5114299;28;19908;-67
2021/07/07 10:09:10;;;;;;;;;;;10.80;99.90;;;;;;5114299;28;19919;-66
2021/07/07 10:11:40;;;;;;;;;;;10.80;99.90;;;;;;5112612;28;20382;-67
2021/07/07 10:14:11;;;;;;;;;;;10.80;99.90;;;;;;5113126;28;20366;-67
2021/07/07 10:16:38;;;;;;;;;;;10.70;99.90;;;;;;5112506;28;19918;-66
2021/07/07 10:19:05;;;;;;;;;;;10.80;99.90;;;;;;5074496;28;19908;-66
2021/07/07 10:21:32;;;;;;;;;;;10.70;99.90;;;;;;5073479;28;20363;-67
2021/07/07 10:23:59;;;;;;;;;;;10.70;99.90;;;;;;5073200;28;20053;-66
2021/07/07 10:26:26;;;;;;;;;;;10.70;99.90;;;;;;5072079;28;19955;-66
2021/07/07 10:28:53;;;;;;;;;;;10.70;99.90;;;;;;5072734;28;20350;-66
2021/07/07 10:31:21;;;;;;;;;;;10.70;99.90;;;;;;5072633;28;19908;-66
2021/07/07 10:33:48;;;;;;;;;;;10.70;99.90;;;;;;5072860;28;20343;-66
2021/07/07 10:36:21;;;;;;;;;;;10.60;99.90;;;;;;5073249;28;19908;-66
2021/07/07 10:38:52;;;;;;;;;;;10.60;99.90;;;;;;5070643;28;20319;-65
2021/07/07 10:41:37;;;;;;;;;;;10.60;99.90;;;;;;5097043;28;19908;-68
2021/07/07 10:44:03;;;;;;;;;;;10.50;99.90;;;;;;5111114;28;19920;-67
2021/07/07 10:46:48;;;;;;;;;;;10.60;99.90;;;;;;5111042;28;19908;-68
2021/07/07 10:49:21;;;;;;;;;;;10.50;99.90;;;;;;5093112;28;19907;-66
2021/07/07 10:51:50;;;;;;;;;;;10.50;99.90;;;;;;5110977;28;19914;-67
2021/07/07 10:54:23;;;;;;;;;;;10.50;99.90;;;;;;5111349;28;20007;-66
2021/07/07 10:56:51;;;;;;;;;;;10.50;99.90;;;;;;5107830;28;19980;-66
2021/07/07 10:59:36;;;;;;;;;;;10.50;99.90;;;;;;5111069;28;20371;-66
2021/07/07 11:02:08;;;;;;;;;;;10.50;99.90;;;;;;5110795;28;19998;-66
2021/07/07 11:04:39;;;;;;;;;;;10.50;99.90;;;;;;5110643;28;19916;-65
2021/07/07 11:07:24;;;;;;;;;;;10.50;99.90;;;;;;5111033;28;19915;-66
2021/07/07 11:09:54;;;;;;;;;;;10.50;99.90;;;;;;5109443;28;19912;-64
2021/07/07 11:12:41;;;;;;;;;;;10.50;99.90;;;;;;5111072;28;19931;-66
2021/07/07 11:15:09;;;;;;;;;;;10.50;99.90;;;;;;5078614;28;19968;-67
2021/07/07 11:17:43;;;;;;;;;;;10.50;99.90;;;;;;5110357;28;19965;-67
2021/07/07 11:20:14;;;;;;;;;;;10.60;99.90;;;;;;5110751;28;19915;-66
2021/07/07 11:22:41;;;;;;;;;;;10.50;99.90;;;;;;5110680;28;19919;-66
2021/07/07 11:25:10;;;;;;;;;;;10.50;99.90;;;;;;5107770;28;19930;-65
2021/07/07 11:27:37;;;;;;;;;;;10.50;99.90;;;;;;5110463;28;19915;-66
2021/07/07 11:30:05;;;;;;;;;;;10.50;99.90;;;;;;5091725;28;19908;-66
2021/07/07 11:32:35;;;;;;;;;;;10.40;99.90;;;;;;5109245;28;20400;-66
2021/07/07 11:35:03;;;;;;;;;;;10.40;99.90;;;;;;5110728;28;19912;-67
2021/07/07 11:37:31;;;;;;;;;;;10.50;99.90;;;;;;5110617;28;19958;-66
2021/07/07 11:40:16;;;;;;;;;;;10.40;99.90;;;;;;5110550;28;20003;-65
2021/07/07 11:42:58;;;;;;;;;;;10.40;99.90;;;;;;5109869;28;19928;-67
2021/07/07 11:45:33;;;;;;;;;;;10.50;99.90;;;;;;5110183;28;20546;-64
2021/07/07 11:50:49;;;;;;;;;;;10.50;99.90;;;;;;5109747;28;19918;-65
2021/07/07 11:53:16;;;;;;;;;;;10.60;99.90;;;;;;5110398;28;20003;-65
2021/07/07 11:55:51;;;;;;;;;;;10.50;99.90;;;;;;5109972;28;19914;-64
2021/07/07 11:58:19;;;;;;;;;;;10.50;99.90;;;;;;5110304;28;20395;-66
2021/07/07 12:00:46;;;;;;;;;;;10.50;99.90;;;;;;5110257;28;20372;-65
2021/07/07 12:03:12;;;;;;;;;;;10.50;99.90;;;;;;5108710;28;19928;-66
2021/07/07 12:05:47;;;;;;;;;;;10.50;99.90;;;;;;5110410;28;19912;-66
2021/07/07 12:08:14;;;;;;;;;;;10.50;99.90;;;;;;5110285;28;19914;-67
2021/07/07 12:10:41;;;;;;;;;;;10.50;99.90;;;;;;5109828;28;19908;-67
2021/07/07 12:13:19;;;;;;;;;;;10.50;99.90;;;;;;5092145;28;20393;-67
2021/07/07 12:15:46;;;;;;;;;;;10.50;99.90;;;;;;5109527;28;19908;-66
2021/07/07 12:18:28;;;;;;;;;;;10.40;99.90;;;;;;5108283;28;20014;-66
2021/07/07 12:20:56;;;;;;;;;;;10.30;99.90;;;;;;5110233;28;19908;-66
2021/07/07 12:23:23;;;;;;;;;;;10.30;99.90;;;;;;5109609;28;19916;-66
2021/07/07 12:26:00;;;;;;;;;;;10.30;99.90;;;;;;5110053;28;19912;-66
2021/07/07 12:28:28;;;;;;;;;;;10.20;99.90;;;;;;5110325;28;19914;-66
2021/07/07 12:30:55;;;;;;;;;;;10.20;99.90;;;;;;5109723;28;19912;-67
2021/07/07 12:33:22;;;;;;;;;;;10.30;99.90;;;;;;5075028;28;19926;-65
2021/07/07 12:35:48;;;;;;;;;;;10.20;99.90;;;;;;5069047;28;19912;-67
2021/07/07 12:38:15;;;;;;;;;;;10.20;99.90;;;;;;5069699;28;20359;-66
2021/07/07 12:40:42;;;;;;;;;;;10.20;99.90;;;;;;5069400;28;19939;-66
2021/07/07 12:43:13;;;;;;;;;;;10.20;99.90;;;;;;5069016;28;20315;-66
2021/07/07 12:45:39;;;;;;;;;;;10.20;99.90;;;;;;5068814;28;19992;-66
2021/07/07 12:48:08;;;;;;;;;;;10.20;99.90;;;;;;5085126;28;19989;-66
2021/07/07 12:50:36;;;;;;;;;;;10.20;99.90;;;;;;5090993;28;20007;-67
2021/07/07 12:53:02;;;;;;;;;;;10.20;99.90;;;;;;5093510;28;20366;-67
2021/07/07 12:55:29;;;;;;;;;;;10.30;99.90;;;;;;5091083;28;19916;-66
2021/07/07 12:58:05;;;;;;;;;;;10.30;99.90;;;;;;5093258;28;20409;-67
2021/07/07 13:00:33;;;;;;;;;;;10.30;99.90;;;;;;5093363;28;19920;-66
2021/07/07 13:03:04;;;;;;;;;;;10.30;99.90;;;;;;5092887;28;19967;-67
2021/07/07 13:05:38;;;;;;;;;;;10.30;99.90;;;;;;5093233;28;20393;-66
2021/07/07 13:08:06;;;;;;;;;;;10.20;99.90;;;;;;5093299;28;20381;-67
2021/07/07 13:10:43;;;;;;;;;;;10.10;99.90;;;;;;5085430;28;19913;-66
2021/07/07 13:13:22;;;;;;;;;;;10.10;99.90;;;;;;5072297;28;19995;-66
2021/07/07 13:16:06;;;;;;;;;;;10.20;99.90;;;;;;5072367;28;19950;-66
2021/07/07 13:18:34;;;;;;;;;;;10.30;99.90;;;;;;5072789;28;19916;-67
2021/07/07 13:21:02;;;;;;;;;;;10.30;99.90;;;;;;5072533;28;19909;-66
2021/07/07 13:23:29;;;;;;;;;;;10.40;99.90;;;;;;5104980;28;19926;-65
2021/07/07 13:26:14;;;;;;;;;;;10.30;99.90;;;;;;5071943;28;19923;-67
2021/07/07 13:28:42;;;;;;;;;;;10.20;99.90;;;;;;5072362;28;19912;-67
2021/07/07 13:31:12;;;;;;;;;;;10.10;99.90;;;;;;5072480;28;20366;-67
2021/07/07 13:33:40;;;;;;;;;;;10.00;99.90;;;;;;5072319;28;19912;-67
2021/07/07 13:36:07;;;;;;;;;;;9.90;99.90;;;;;;5072389;28;19908;-66
2021/07/07 13:38:33;;;;;;;;;;;9.80;99.90;;;;;;5072318;28;19909;-66
2021/07/07 13:41:00;;;;;;;;;;;9.80;99.90;;;;;;5088261;28;19912;-65
2021/07/07 13:43:27;;;;;;;;;;;9.80;99.90;;;;;;5105480;28;19924;-67
2021/07/07 13:45:53;;;;;;;;;;;9.70;99.90;;;;;;5112564;28;19908;-67
2021/07/07 13:48:21;;;;;;;;;;;9.70;99.90;;;;;;5112709;28;19912;-66
2021/07/07 13:50:48;;;;;;;;;;;9.70;99.90;;;;;;5112616;28;20358;-67
2021/07/07 13:53:15;;;;;;;;;;;9.70;99.90;;;;;;5112417;28;19994;-67
2021/07/07 13:55:41;;;;;;;;;;;9.60;99.90;;;;;;5107800;28;20023;-68
2021/07/07 13:58:08;;;;;;;;;;;9.60;99.90;;;;;;5112528;28;19990;-67
2021/07/07 14:00:35;;;;;;;;;;;9.60;99.90;;;;;;5112446;28;20007;-67
2021/07/07 14:03:02;;;;;;;;;;;9.60;99.90;;;;;;5112330;28;19928;-67
2021/07/07 14:05:28;;;;;;;;;;;9.50;99.90;;;;;;5112354;28;19980;-67
2021/07/07 14:07:55;;;;;;;;;;;9.60;99.90;;;;;;5112095;28;19908;-67
2021/07/07 14:10:22;;;;;;;;;;;9.60;99.90;;;;;;5110571;28;19916;-67
2021/07/07 14:12:48;;;;;;;;;;;9.60;99.90;;;;;;5112162;28;19915;-66
2021/07/07 14:15:15;;;;;;;;;;;9.60;99.90;;;;;;5112324;28;19908;-67
2021/07/07 14:17:42;;;;;;;;;;;9.70;99.90;;;;;;5112008;28;19972;-67
2021/07/07 14:20:09;;;;;;;;;;;9.70;99.90;;;;;;5111647;28;19912;-66
2021/07/07 14:22:35;;;;;;;;;;;9.60;99.90;;;;;;5111086;28;19907;-67
2021/07/07 14:25:02;;;;;;;;;;;9.60;99.90;;;;;;5110599;28;19926;-67
2021/07/07 14:27:29;;;;;;;;;;;9.50;99.90;;;;;;5111786;28;20404;-67